sensor_id;sensor_type;location;lat;lon;timestamp;temperature;humidity
70986;DHT22;58645;43.068;25.610;2023-08-01T00:00:44;19.10;99.90
70986;DHT22;58645;43.068;25.610;2023-08-01T00:03:10;19.10;99.90
70986;DHT22;58645;43.068;25.610;2023-08-01T00:05:36;19.00;99.90
70986;DHT22;58645;43.068;25.610;2023-08-01T00:08:03;19.00;99.90
70986;DHT22;58645;43.068;25.610;2023-08-01T00:10:28;19.00;99.90
70986;DHT22;58645;43.068;25.610;2023-08-01T00:12:54;19.00;99.90
70986;DHT22;58645;43.068;25.610;2023-08-01T00:15:20;19.00;99.90
70986;DHT22;58645;43.068;25.610;2023-08-01T00:17:45;19.00;99.90
70986;DHT22;58645;43.068;25.610;2023-08-01T00:20:11;19.00;99.90
70986;DHT22;58645;43.068;25.610;2023-08-01T00:22:37;19.00;99.90
70986;DHT22;58645;43.068;25.610;2023-08-01T00:25:03;19.00;99.90
70986;DHT22;58645;43.068;25.610;2023-08-01T00:27:29;19.00;99.90
70986;DHT22;58645;43.068;25.610;2023-08-01T00:29:54;19.00;99.90
70986;DHT22;58645;43.068;25.610;2023-08-01T00:32:20;19.00;99.90
70986;DHT22;58645;43.068;25.610;2023-08-01T00:34:47;19.00;99.90
70986;DHT22;58645;43.068;25.610;2023-08-01T00:37:15;18.90;99.90
70986;DHT22;58645;43.068;25.610;2023-08-01T00:39:40;18.90;99.90
70986;DHT22;58645;43.068;25.610;2023-08-01T00:42:06;18.90;99.90
70986;DHT22;58645;43.068;25.610;2023-08-01T00:44:32;18.90;99.90
70986;DHT22;58645;43.068;25.610;2023-08-01T00:46:58;18.80;99.90
70986;DHT22;58645;43.068;25.610;2023-08-01T00:49:24;18.80;99.90
70986;DHT22;58645;43.068;25.610;2023-08-01T00:51:50;18.80;99.90
70986;DHT22;58645;43.068;25.610;2023-08-01T00:54:16;18.80;99.90
70986;DHT22;58645;43.068;25.610;2023-08-01T00:56:42;18.90;99.90
70986;DHT22;58645;43.068;25.610;2023-08-01T00:59:08;18.80;99.90
70986;DHT22;58645;43.068;25.610;2023-08-01T01:01:34;18.90;99.90
70986;DHT22;58645;43.068;25.610;2023-08-01T01:03:59;18.90;99.90
70986;DHT22;58645;43.068;25.610;2023-08-01T01:06:32;18.90;99.90
70986;DHT22;58645;43.068;25.610;2023-08-01T01:08:58;19.00;99.90
70986;DHT22;58645;43.068;25.610;2023-08-01T01:11:24;18.90;99.90
70986;DHT22;58645;43.068;25.610;2023-08-01T01:13:50;18.90;99.90
70986;DHT22;58645;43.068;25.610;2023-08-01T01:16:19;18.90;99.90
70986;DHT22;58645;43.068;25.610;2023-08-01T01:18:45;18.90;99.90
70986;DHT22;58645;43.068;25.610;2023-08-01T01:21:26;18.90;99.90
70986;DHT22;58645;43.068;25.610;2023-08-01T01:23:52;18.90;99.90
70986;DHT22;58645;43.068;25.610;2023-08-01T01:26:19;18.90;99.90
70986;DHT22;58645;43.068;25.610;2023-08-01T01:28:50;18.90;99.90
70986;DHT22;58645;43.068;25.610;2023-08-01T01:31:17;18.90;99.90
70986;DHT22;58645;43.068;25.610;2023-08-01T01:33:43;18.80;99.90
70986;DHT22;58645;43.068;25.610;2023-08-01T01:36:09;18.80;99.90
70986;DHT22;58645;43.068;25.610;2023-08-01T01:38:35;18.90;99.90
70986;DHT22;58645;43.068;25.610;2023-08-01T01:41:00;18.80;99.90
70986;DHT22;58645;43.068;25.610;2023-08-01T01:43:26;18.90;99.90
70986;DHT22;58645;43.068;25.610;2023-08-01T01:45:52;18.90;99.90
70986;DHT22;58645;43.068;25.610;2023-08-01T01:48:17;18.90;99.90
70986;DHT22;58645;43.068;25.610;2023-08-01T01:50:43;18.80;99.90
70986;DHT22;58645;43.068;25.610;2023-08-01T01:53:09;18.80;99.90
70986;DHT22;58645;43.068;25.610;2023-08-01T01:55:35;18.80;99.90
70986;DHT22;58645;43.068;25.610;2023-08-01T01:58:00;18.80;99.90
70986;DHT22;58645;43.068;25.610;2023-08-01T02:00:26;18.80;99.90
70986;DHT22;58645;43.068;25.610;2023-08-01T02:02:52;18.80;99.90
70986;DHT22;58645;43.068;25.610;2023-08-01T02:05:17;18.80;99.90
70986;DHT22;58645;43.068;25.610;2023-08-01T02:07:43;18.80;99.90
70986;DHT22;58645;43.068;25.610;2023-08-01T02:10:09;18.80;99.90
70986;DHT22;58645;43.068;25.610;2023-08-01T02:12:36;18.80;99.90
70986;DHT22;58645;43.068;25.610;2023-08-01T02:15:02;18.80;99.90
70986;DHT22;58645;43.068;25.610;2023-08-01T02:17:28;18.90;99.90
70986;DHT22;58645;43.068;25.610;2023-08-01T02:19:53;18.90;99.90
70986;DHT22;58645;43.068;25.610;2023-08-01T02:22:19;18.90;99.90
70986;DHT22;58645;43.068;25.610;2023-08-01T02:24:45;18.90;99.90
70986;DHT22;58645;43.068;25.610;2023-08-01T02:27:11;18.90;99.90
70986;DHT22;58645;43.068;25.610;2023-08-01T02:29:36;18.90;99.90
70986;DHT22;58645;43.068;25.610;2023-08-01T02:32:02;18.90;99.90
70986;DHT22;58645;43.068;25.610;2023-08-01T02:34:28;18.90;99.90
70986;DHT22;58645;43.068;25.610;2023-08-01T02:36:54;18.90;99.90
70986;DHT22;58645;43.068;25.610;2023-08-01T02:39:20;18.90;99.90
70986;DHT22;58645;43.068;25.610;2023-08-01T02:41:45;18.90;99.90
70986;DHT22;58645;43.068;25.610;2023-08-01T02:44:11;18.90;99.90
70986;DHT22;58645;43.068;25.610;2023-08-01T02:46:38;18.80;99.90
70986;DHT22;58645;43.068;25.610;2023-08-01T02:49:04;18.80;99.90
70986;DHT22;58645;43.068;25.610;2023-08-01T02:51:29;18.80;99.90
70986;DHT22;58645;43.068;25.610;2023-08-01T02:53:55;18.80;99.90
70986;DHT22;58645;43.068;25.610;2023-08-01T02:56:21;18.70;99.90
70986;DHT22;58645;43.068;25.610;2023-08-01T02:58:46;18.60;99.90
70986;DHT22;58645;43.068;25.610;2023-08-01T03:01:12;18.50;99.90
70986;DHT22;58645;43.068;25.610;2023-08-01T03:03:39;18.40;99.90
70986;DHT22;58645;43.068;25.610;2023-08-01T03:06:05;18.40;99.90
70986;DHT22;58645;43.068;25.610;2023-08-01T03:08:30;18.30;99.90
70986;DHT22;58645;43.068;25.610;2023-08-01T03:10:57;18.40;99.90
70986;DHT22;58645;43.068;25.610;2023-08-01T03:13:23;18.40;99.90
70986;DHT22;58645;43.068;25.610;2023-08-01T03:15:49;18.30;99.90
70986;DHT22;58645;43.068;25.610;2023-08-01T03:18:14;18.30;99.90
70986;DHT22;58645;43.068;25.610;2023-08-01T03:20:40;18.30;99.90
70986;DHT22;58645;43.068;25.610;2023-08-01T03:23:06;18.20;99.90
70986;DHT22;58645;43.068;25.610;2023-08-01T03:25:32;18.20;99.90
70986;DHT22;58645;43.068;25.610;2023-08-01T03:27:58;18.30;99.90
70986;DHT22;58645;43.068;25.610;2023-08-01T03:30:24;18.30;99.90
70986;DHT22;58645;43.068;25.610;2023-08-01T03:32:49;18.30;99.90
70986;DHT22;58645;43.068;25.610;2023-08-01T03:35:15;18.30;99.90
70986;DHT22;58645;43.068;25.610;2023-08-01T03:37:41;18.30;99.90
70986;DHT22;58645;43.068;25.610;2023-08-01T03:40:07;18.30;99.90
70986;DHT22;58645;43.068;25.610;2023-08-01T03:42:36;18.30;99.90
70986;DHT22;58645;43.068;25.610;2023-08-01T03:45:02;18.30;99.90
70986;DHT22;58645;43.068;25.610;2023-08-01T03:47:28;18.20;99.90
70986;DHT22;58645;43.068;25.610;2023-08-01T03:49:54;18.30;99.90
70986;DHT22;58645;43.068;25.610;2023-08-01T03:52:20;18.30;99.90
70986;DHT22;58645;43.068;25.610;2023-08-01T03:54:45;18.30;99.90
70986;DHT22;58645;43.068;25.610;2023-08-01T03:57:11;18.30;99.90
70986;DHT22;58645;43.068;25.610;2023-08-01T03:59:37;18.30;99.90
70986;DHT22;58645;43.068;25.610;2023-08-01T04:02:03;18.40;99.90
70986;DHT22;58645;43.068;25.610;2023-08-01T04:04:30;18.40;99.90
70986;DHT22;58645;43.068;25.610;2023-08-01T04:06:57;18.40;99.90
70986;DHT22;58645;43.068;25.610;2023-08-01T04:09:23;18.40;99.90
70986;DHT22;58645;43.068;25.610;2023-08-01T04:11:48;18.50;99.90
70986;DHT22;58645;43.068;25.610;2023-08-01T04:14:14;18.70;99.90
70986;DHT22;58645;43.068;25.610;2023-08-01T04:16:40;18.60;99.90
70986;DHT22;58645;43.068;25.610;2023-08-01T04:19:05;18.70;99.90
70986;DHT22;58645;43.068;25.610;2023-08-01T04:21:31;18.80;99.90
70986;DHT22;58645;43.068;25.610;2023-08-01T04:23:57;18.90;99.90
70986;DHT22;58645;43.068;25.610;2023-08-01T04:26:22;19.00;99.90
70986;DHT22;58645;43.068;25.610;2023-08-01T04:28:48;19.10;99.90
70986;DHT22;58645;43.068;25.610;2023-08-01T04:31:14;19.20;99.90
70986;DHT22;58645;43.068;25.610;2023-08-01T04:33:40;19.40;99.90
70986;DHT22;58645;43.068;25.610;2023-08-01T04:36:06;19.60;99.90
70986;DHT22;58645;43.068;25.610;2023-08-01T04:38:31;19.70;99.90
70986;DHT22;58645;43.068;25.610;2023-08-01T04:40:57;19.80;99.90
70986;DHT22;58645;43.068;25.610;2023-08-01T04:43:23;19.80;99.90
70986;DHT22;58645;43.068;25.610;2023-08-01T04:45:49;19.90;99.90
70986;DHT22;58645;43.068;25.610;2023-08-01T04:48:14;20.00;99.90
70986;DHT22;58645;43.068;25.610;2023-08-01T04:50:40;20.10;99.90
70986;DHT22;58645;43.068;25.610;2023-08-01T04:53:05;20.10;99.90
70986;DHT22;58645;43.068;25.610;2023-08-01T04:55:32;20.20;99.90
70986;DHT22;58645;43.068;25.610;2023-08-01T04:57:57;20.30;99.90
70986;DHT22;58645;43.068;25.610;2023-08-01T05:00:23;20.50;99.90
70986;DHT22;58645;43.068;25.610;2023-08-01T05:02:49;20.60;99.90
70986;DHT22;58645;43.068;25.610;2023-08-01T05:05:16;20.70;99.90
70986;DHT22;58645;43.068;25.610;2023-08-01T05:07:42;20.70;99.90
70986;DHT22;58645;43.068;25.610;2023-08-01T05:10:08;20.80;99.90
70986;DHT22;58645;43.068;25.610;2023-08-01T05:12:33;20.80;99.90
70986;DHT22;58645;43.068;25.610;2023-08-01T05:14:59;20.80;99.90
70986;DHT22;58645;43.068;25.610;2023-08-01T05:17:25;20.70;99.90
70986;DHT22;58645;43.068;25.610;2023-08-01T05:19:51;20.70;99.90
70986;DHT22;58645;43.068;25.610;2023-08-01T05:22:16;20.40;99.90
70986;DHT22;58645;43.068;25.610;2023-08-01T05:24:42;20.50;99.90
70986;DHT22;58645;43.068;25.610;2023-08-01T05:27:08;20.70;99.90
70986;DHT22;58645;43.068;25.610;2023-08-01T05:29:33;21.00;99.90
70986;DHT22;58645;43.068;25.610;2023-08-01T05:31:59;21.30;99.90
70986;DHT22;58645;43.068;25.610;2023-08-01T05:34:25;21.60;99.90
70986;DHT22;58645;43.068;25.610;2023-08-01T05:36:50;21.70;99.90
70986;DHT22;58645;43.068;25.610;2023-08-01T05:39:16;21.90;99.90
70986;DHT22;58645;43.068;25.610;2023-08-01T05:41:43;22.20;99.90
70986;DHT22;58645;43.068;25.610;2023-08-01T05:44:08;22.50;99.90
70986;DHT22;58645;43.068;25.610;2023-08-01T05:46:34;22.90;99.90
70986;DHT22;58645;43.068;25.610;2023-08-01T05:49:00;23.30;99.90
70986;DHT22;58645;43.068;25.610;2023-08-01T05:51:26;23.70;99.90
70986;DHT22;58645;43.068;25.610;2023-08-01T05:53:52;24.00;99.90
70986;DHT22;58645;43.068;25.610;2023-08-01T05:56:20;24.20;99.90
70986;DHT22;58645;43.068;25.610;2023-08-01T05:58:46;24.50;99.90
70986;DHT22;58645;43.068;25.610;2023-08-01T06:01:11;24.90;99.90
70986;DHT22;58645;43.068;25.610;2023-08-01T06:03:37;24.80;99.90
70986;DHT22;58645;43.068;25.610;2023-08-01T06:06:03;25.00;99.90
70986;DHT22;58645;43.068;25.610;2023-08-01T06:08:30;25.50;99.90
70986;DHT22;58645;43.068;25.610;2023-08-01T06:10:56;26.00;99.90
70986;DHT22;58645;43.068;25.610;2023-08-01T06:13:22;26.40;99.90
70986;DHT22;58645;43.068;25.610;2023-08-01T06:15:47;26.80;97.30
70986;DHT22;58645;43.068;25.610;2023-08-01T06:18:13;27.20;96.00
70986;DHT22;58645;43.068;25.610;2023-08-01T06:20:39;27.70;94.10
70986;DHT22;58645;43.068;25.610;2023-08-01T06:23:05;28.00;90.50
70986;DHT22;58645;43.068;25.610;2023-08-01T06:25:31;28.30;87.40
70986;DHT22;58645;43.068;25.610;2023-08-01T06:27:56;28.60;86.10
70986;DHT22;58645;43.068;25.610;2023-08-01T06:30:22;28.90;81.60
70986;DHT22;58645;43.068;25.610;2023-08-01T06:32:48;29.10;78.40
70986;DHT22;58645;43.068;25.610;2023-08-01T06:35:14;29.40;76.90
70986;DHT22;58645;43.068;25.610;2023-08-01T06:37:39;29.80;73.40
70986;DHT22;58645;43.068;25.610;2023-08-01T06:40:06;30.00;71.10
70986;DHT22;58645;43.068;25.610;2023-08-01T06:42:33;30.20;71.60
70986;DHT22;58645;43.068;25.610;2023-08-01T06:44:59;30.30;68.80
70986;DHT22;58645;43.068;25.610;2023-08-01T06:47:24;30.30;65.80
70986;DHT22;58645;43.068;25.610;2023-08-01T06:49:50;30.40;65.30
70986;DHT22;58645;43.068;25.610;2023-08-01T06:52:16;30.50;64.80
70986;DHT22;58645;43.068;25.610;2023-08-01T06:54:41;30.70;66.00
70986;DHT22;58645;43.068;25.610;2023-08-01T06:57:07;30.70;60.00
70986;DHT22;58645;43.068;25.610;2023-08-01T06:59:33;30.80;60.80
70986;DHT22;58645;43.068;25.610;2023-08-01T07:01:58;31.20;60.20
70986;DHT22;58645;43.068;25.610;2023-08-01T07:04:24;31.20;60.70
70986;DHT22;58645;43.068;25.610;2023-08-01T07:06:50;31.30;58.40
70986;DHT22;58645;43.068;25.610;2023-08-01T07:09:15;31.40;55.70
70986;DHT22;58645;43.068;25.610;2023-08-01T07:11:41;31.70;57.20
70986;DHT22;58645;43.068;25.610;2023-08-01T07:14:07;32.00;56.20
70986;DHT22;58645;43.068;25.610;2023-08-01T07:16:33;31.90;53.90
70986;DHT22;58645;43.068;25.610;2023-08-01T07:19:00;31.70;53.40
70986;DHT22;58645;43.068;25.610;2023-08-01T07:21:26;31.70;53.10
70986;DHT22;58645;43.068;25.610;2023-08-01T07:23:52;31.40;53.30
70986;DHT22;58645;43.068;25.610;2023-08-01T07:26:17;31.60;52.30
70986;DHT22;58645;43.068;25.610;2023-08-01T07:28:43;31.90;52.30
70986;DHT22;58645;43.068;25.610;2023-08-01T07:31:09;31.80;52.30
70986;DHT22;58645;43.068;25.610;2023-08-01T07:33:35;32.20;53.00
70986;DHT22;58645;43.068;25.610;2023-08-01T07:36:00;32.70;50.90
70986;DHT22;58645;43.068;25.610;2023-08-01T07:38:26;33.20;50.30
70986;DHT22;58645;43.068;25.610;2023-08-01T07:40:53;33.10;49.00
70986;DHT22;58645;43.068;25.610;2023-08-01T07:43:19;33.00;50.10
70986;DHT22;58645;43.068;25.610;2023-08-01T07:45:45;33.10;48.20
70986;DHT22;58645;43.068;25.610;2023-08-01T07:48:11;33.20;48.60
70986;DHT22;58645;43.068;25.610;2023-08-01T07:50:37;33.30;47.20
70986;DHT22;58645;43.068;25.610;2023-08-01T07:53:02;33.40;46.80
70986;DHT22;58645;43.068;25.610;2023-08-01T07:55:28;33.80;47.40
70986;DHT22;58645;43.068;25.610;2023-08-01T07:57:54;33.70;46.10
70986;DHT22;58645;43.068;25.610;2023-08-01T08:00:20;33.80;46.20
70986;DHT22;58645;43.068;25.610;2023-08-01T08:02:47;34.00;45.70
70986;DHT22;58645;43.068;25.610;2023-08-01T08:05:13;33.70;45.20
70986;DHT22;58645;43.068;25.610;2023-08-01T08:07:39;33.90;47.00
70986;DHT22;58645;43.068;25.610;2023-08-01T08:10:08;34.10;44.30
70986;DHT22;58645;43.068;25.610;2023-08-01T08:12:33;34.10;44.80
70986;DHT22;58645;43.068;25.610;2023-08-01T08:14:59;34.10;43.30
70986;DHT22;58645;43.068;25.610;2023-08-01T08:17:25;34.20;44.20
70986;DHT22;58645;43.068;25.610;2023-08-01T08:19:51;34.30;44.80
70986;DHT22;58645;43.068;25.610;2023-08-01T08:22:16;34.60;42.20
70986;DHT22;58645;43.068;25.610;2023-08-01T08:24:42;35.10;42.90
70986;DHT22;58645;43.068;25.610;2023-08-01T08:27:08;35.20;42.10
70986;DHT22;58645;43.068;25.610;2023-08-01T08:29:34;35.50;41.10
70986;DHT22;58645;43.068;25.610;2023-08-01T08:31:59;35.00;40.20
70986;DHT22;58645;43.068;25.610;2023-08-01T08:34:25;35.10;41.30
70986;DHT22;58645;43.068;25.610;2023-08-01T08:36:52;35.30;41.50
70986;DHT22;58645;43.068;25.610;2023-08-01T08:39:18;35.30;40.80
70986;DHT22;58645;43.068;25.610;2023-08-01T08:41:49;35.50;40.20
70986;DHT22;58645;43.068;25.610;2023-08-01T08:44:16;35.70;39.40
70986;DHT22;58645;43.068;25.610;2023-08-01T08:46:44;35.90;39.30
70986;DHT22;58645;43.068;25.610;2023-08-01T08:49:10;35.80;38.00
70986;DHT22;58645;43.068;25.610;2023-08-01T08:51:37;36.10;39.70
70986;DHT22;58645;43.068;25.610;2023-08-01T08:54:08;36.00;38.50
70986;DHT22;58645;43.068;25.610;2023-08-01T08:56:34;36.00;38.50
70986;DHT22;58645;43.068;25.610;2023-08-01T08:59:00;35.80;37.40
70986;DHT22;58645;43.068;25.610;2023-08-01T09:01:26;36.40;37.70
70986;DHT22;58645;43.068;25.610;2023-08-01T09:03:52;36.10;36.80
70986;DHT22;58645;43.068;25.610;2023-08-01T09:06:29;36.20;38.00
70986;DHT22;58645;43.068;25.610;2023-08-01T09:11:25;36.70;36.00
70986;DHT22;58645;43.068;25.610;2023-08-01T09:13:51;36.10;35.50
70986;DHT22;58645;43.068;25.610;2023-08-01T09:16:18;36.10;36.70
70986;DHT22;58645;43.068;25.610;2023-08-01T09:18:48;36.40;36.00
70986;DHT22;58645;43.068;25.610;2023-08-01T09:21:14;36.70;37.70
70986;DHT22;58645;43.068;25.610;2023-08-01T09:23:40;36.40;35.80
70986;DHT22;58645;43.068;25.610;2023-08-01T09:26:13;36.50;35.60
70986;DHT22;58645;43.068;25.610;2023-08-01T09:28:39;36.10;35.00
70986;DHT22;58645;43.068;25.610;2023-08-01T09:31:04;36.50;35.00
70986;DHT22;58645;43.068;25.610;2023-08-01T09:33:42;36.40;35.20
70986;DHT22;58645;43.068;25.610;2023-08-01T09:36:09;36.20;35.80
70986;DHT22;58645;43.068;25.610;2023-08-01T09:38:35;36.70;34.40
70986;DHT22;58645;43.068;25.610;2023-08-01T09:41:03;37.20;35.90
70986;DHT22;58645;43.068;25.610;2023-08-01T09:43:36;37.40;34.40
70986;DHT22;58645;43.068;25.610;2023-08-01T09:46:02;37.50;34.90
70986;DHT22;58645;43.068;25.610;2023-08-01T09:48:29;37.40;33.30
70986;DHT22;58645;43.068;25.610;2023-08-01T09:51:09;37.10;34.20
70986;DHT22;58645;43.068;25.610;2023-08-01T09:53:46;37.00;34.80
70986;DHT22;58645;43.068;25.610;2023-08-01T09:56:15;37.10;34.80
70986;DHT22;58645;43.068;25.610;2023-08-01T09:58:43;37.50;35.50
70986;DHT22;58645;43.068;25.610;2023-08-01T10:01:11;37.20;33.80
70986;DHT22;58645;43.068;25.610;2023-08-01T10:03:37;37.40;34.10
70986;DHT22;58645;43.068;25.610;2023-08-01T10:06:04;37.60;34.70
70986;DHT22;58645;43.068;25.610;2023-08-01T10:08:30;37.60;35.10
70986;DHT22;58645;43.068;25.610;2023-08-01T10:10:59;37.70;35.00
70986;DHT22;58645;43.068;25.610;2023-08-01T10:13:27;37.40;34.70
70986;DHT22;58645;43.068;25.610;2023-08-01T10:15:54;37.40;33.60
70986;DHT22;58645;43.068;25.610;2023-08-01T10:18:20;37.40;33.60
70986;DHT22;58645;43.068;25.610;2023-08-01T10:20:46;37.10;35.00
70986;DHT22;58645;43.068;25.610;2023-08-01T10:23:13;36.90;34.70
70986;DHT22;58645;43.068;25.610;2023-08-01T10:25:40;37.20;34.90
70986;DHT22;58645;43.068;25.610;2023-08-01T10:28:06;37.40;34.90
70986;DHT22;58645;43.068;25.610;2023-08-01T10:30:32;37.60;32.40
70986;DHT22;58645;43.068;25.610;2023-08-01T10:32:59;37.60;33.10
70986;DHT22;58645;43.068;25.610;2023-08-01T10:35:33;37.40;32.70
70986;DHT22;58645;43.068;25.610;2023-08-01T10:38:11;37.40;33.00
70986;DHT22;58645;43.068;25.610;2023-08-01T10:43:05;37.40;33.70
70986;DHT22;58645;43.068;25.610;2023-08-01T10:45:31;37.20;32.70
70986;DHT22;58645;43.068;25.610;2023-08-01T10:48:12;37.20;33.80
70986;DHT22;58645;43.068;25.610;2023-08-01T10:50:39;37.10;33.40
70986;DHT22;58645;43.068;25.610;2023-08-01T10:53:06;36.90;32.50
70986;DHT22;58645;43.068;25.610;2023-08-01T10:55:44;36.90;33.60
70986;DHT22;58645;43.068;25.610;2023-08-01T10:58:10;37.10;34.60
70986;DHT22;58645;43.068;25.610;2023-08-01T11:00:36;37.40;33.70
70986;DHT22;58645;43.068;25.610;2023-08-01T11:03:01;37.70;32.30
70986;DHT22;58645;43.068;25.610;2023-08-01T11:05:28;37.80;33.30
70986;DHT22;58645;43.068;25.610;2023-08-01T11:10:22;37.60;33.30
70986;DHT22;58645;43.068;25.610;2023-08-01T11:12:48;38.00;33.20
70986;DHT22;58645;43.068;25.610;2023-08-01T11:15:14;37.90;30.90
70986;DHT22;58645;43.068;25.610;2023-08-01T11:17:47;37.60;32.10
70986;DHT22;58645;43.068;25.610;2023-08-01T11:20:14;37.70;33.10
70986;DHT22;58645;43.068;25.610;2023-08-01T11:22:54;37.40;32.10
70986;DHT22;58645;43.068;25.610;2023-08-01T11:25:31;37.40;32.40
70986;DHT22;58645;43.068;25.610;2023-08-01T11:28:10;37.10;32.50
70986;DHT22;58645;43.068;25.610;2023-08-01T11:30:37;36.60;33.50
70986;DHT22;58645;43.068;25.610;2023-08-01T11:33:14;36.90;33.90
70986;DHT22;58645;43.068;25.610;2023-08-01T11:35:40;36.30;33.90
70986;DHT22;58645;43.068;25.610;2023-08-01T11:38:06;36.30;33.30
70986;DHT22;58645;43.068;25.610;2023-08-01T11:40:32;36.40;34.20
70986;DHT22;58645;43.068;25.610;2023-08-01T11:42:58;36.70;32.80
70986;DHT22;58645;43.068;25.610;2023-08-01T11:45:24;36.70;33.30
70986;DHT22;58645;43.068;25.610;2023-08-01T11:47:51;36.40;33.30
70986;DHT22;58645;43.068;25.610;2023-08-01T11:50:24;36.50;33.50
70986;DHT22;58645;43.068;25.610;2023-08-01T11:52:51;36.80;32.70
70986;DHT22;58645;43.068;25.610;2023-08-01T11:55:21;36.70;33.80
70986;DHT22;58645;43.068;25.610;2023-08-01T11:57:57;36.10;33.00
70986;DHT22;58645;43.068;25.610;2023-08-01T12:00:25;36.00;33.90
70986;DHT22;58645;43.068;25.610;2023-08-01T12:02:51;36.30;34.30
70986;DHT22;58645;43.068;25.610;2023-08-01T12:05:24;36.60;34.70
70986;DHT22;58645;43.068;25.610;2023-08-01T12:07:49;36.60;32.70
70986;DHT22;58645;43.068;25.610;2023-08-01T12:10:18;36.70;33.30
70986;DHT22;58645;43.068;25.610;2023-08-01T12:12:45;36.90;32.70
70986;DHT22;58645;43.068;25.610;2023-08-01T12:15:13;36.70;32.80
70986;DHT22;58645;43.068;25.610;2023-08-01T12:17:39;36.70;33.10
70986;DHT22;58645;43.068;25.610;2023-08-01T12:20:06;36.60;32.40
70986;DHT22;58645;43.068;25.610;2023-08-01T12:22:32;36.40;32.80
70986;DHT22;58645;43.068;25.610;2023-08-01T12:24:58;36.40;33.70
70986;DHT22;58645;43.068;25.610;2023-08-01T12:27:23;36.60;33.50
70986;DHT22;58645;43.068;25.610;2023-08-01T12:29:49;36.90;33.10
70986;DHT22;58645;43.068;25.610;2023-08-01T12:32:15;36.90;33.00
70986;DHT22;58645;43.068;25.610;2023-08-01T12:34:41;37.00;32.30
70986;DHT22;58645;43.068;25.610;2023-08-01T12:37:07;36.90;34.20
70986;DHT22;58645;43.068;25.610;2023-08-01T12:39:33;36.90;33.70
70986;DHT22;58645;43.068;25.610;2023-08-01T12:41:58;37.00;34.60
70986;DHT22;58645;43.068;25.610;2023-08-01T12:44:24;36.70;31.40
70986;DHT22;58645;43.068;25.610;2023-08-01T12:46:50;36.70;31.70
70986;DHT22;58645;43.068;25.610;2023-08-01T12:49:17;36.90;33.50
70986;DHT22;58645;43.068;25.610;2023-08-01T12:51:43;36.90;32.10
70986;DHT22;58645;43.068;25.610;2023-08-01T12:54:08;36.40;32.70
70986;DHT22;58645;43.068;25.610;2023-08-01T12:56:34;36.30;33.60
70986;DHT22;58645;43.068;25.610;2023-08-01T12:59:00;36.20;32.70
70986;DHT22;58645;43.068;25.610;2023-08-01T13:01:26;36.40;33.40
70986;DHT22;58645;43.068;25.610;2023-08-01T13:03:51;36.70;32.10
70986;DHT22;58645;43.068;25.610;2023-08-01T13:06:17;36.60;31.50
70986;DHT22;58645;43.068;25.610;2023-08-01T13:08:43;36.60;34.70
70986;DHT22;58645;43.068;25.610;2023-08-01T13:11:15;36.60;32.80
70986;DHT22;58645;43.068;25.610;2023-08-01T13:13:41;36.60;32.30
70986;DHT22;58645;43.068;25.610;2023-08-01T13:16:07;36.30;33.00
70986;DHT22;58645;43.068;25.610;2023-08-01T13:18:33;36.00;33.80
70986;DHT22;58645;43.068;25.610;2023-08-01T13:21:00;35.90;33.10
70986;DHT22;58645;43.068;25.610;2023-08-01T13:23:26;35.60;33.10
70986;DHT22;58645;43.068;25.610;2023-08-01T13:25:52;35.40;34.50
70986;DHT22;58645;43.068;25.610;2023-08-01T13:28:18;35.10;34.70
70986;DHT22;58645;43.068;25.610;2023-08-01T13:30:43;35.00;34.60
70986;DHT22;58645;43.068;25.610;2023-08-01T13:33:09;34.70;34.00
70986;DHT22;58645;43.068;25.610;2023-08-01T13:35:35;34.50;36.10
70986;DHT22;58645;43.068;25.610;2023-08-01T13:38:01;34.10;35.30
70986;DHT22;58645;43.068;25.610;2023-08-01T13:40:26;33.90;35.80
70986;DHT22;58645;43.068;25.610;2023-08-01T13:42:52;33.80;36.60
70986;DHT22;58645;43.068;25.610;2023-08-01T13:45:18;33.60;36.10
70986;DHT22;58645;43.068;25.610;2023-08-01T13:47:43;33.30;37.10
70986;DHT22;58645;43.068;25.610;2023-08-01T13:50:09;32.90;37.60
70986;DHT22;58645;43.068;25.610;2023-08-01T13:52:37;32.80;37.70
70986;DHT22;58645;43.068;25.610;2023-08-01T13:55:03;32.70;37.60
70986;DHT22;58645;43.068;25.610;2023-08-01T13:57:30;32.70;38.50
70986;DHT22;58645;43.068;25.610;2023-08-01T13:59:56;32.70;38.60
70986;DHT22;58645;43.068;25.610;2023-08-01T14:02:22;32.70;36.90
70986;DHT22;58645;43.068;25.610;2023-08-01T14:04:51;32.60;37.70
70986;DHT22;58645;43.068;25.610;2023-08-01T14:07:18;32.50;37.80
70986;DHT22;58645;43.068;25.610;2023-08-01T14:09:43;32.50;38.00
70986;DHT22;58645;43.068;25.610;2023-08-01T14:12:09;32.40;38.30
70986;DHT22;58645;43.068;25.610;2023-08-01T14:14:35;32.20;38.50
70986;DHT22;58645;43.068;25.610;2023-08-01T14:17:00;32.10;39.00
70986;DHT22;58645;43.068;25.610;2023-08-01T14:19:26;32.00;39.80
70986;DHT22;58645;43.068;25.610;2023-08-01T14:21:58;31.90;39.60
70986;DHT22;58645;43.068;25.610;2023-08-01T14:24:24;31.80;40.00
70986;DHT22;58645;43.068;25.610;2023-08-01T14:26:50;31.70;41.10
70986;DHT22;58645;43.068;25.610;2023-08-01T14:29:17;31.70;41.00
70986;DHT22;58645;43.068;25.610;2023-08-01T14:31:49;31.70;41.90
70986;DHT22;58645;43.068;25.610;2023-08-01T14:34:15;31.60;41.70
70986;DHT22;58645;43.068;25.610;2023-08-01T14:36:41;31.50;41.80
70986;DHT22;58645;43.068;25.610;2023-08-01T14:39:07;31.50;43.20
70986;DHT22;58645;43.068;25.610;2023-08-01T14:41:32;31.50;43.40
70986;DHT22;58645;43.068;25.610;2023-08-01T14:43:59;31.50;43.10
70986;DHT22;58645;43.068;25.610;2023-08-01T14:46:25;31.40;43.60
70986;DHT22;58645;43.068;25.610;2023-08-01T14:48:50;31.30;43.80
70986;DHT22;58645;43.068;25.610;2023-08-01T14:51:16;31.20;44.40
70986;DHT22;58645;43.068;25.610;2023-08-01T14:53:42;31.20;44.60
70986;DHT22;58645;43.068;25.610;2023-08-01T14:56:07;31.10;44.40
70986;DHT22;58645;43.068;25.610;2023-08-01T14:58:33;31.10;44.40
70986;DHT22;58645;43.068;25.610;2023-08-01T15:01:05;31.10;45.10
70986;DHT22;58645;43.068;25.610;2023-08-01T15:03:31;31.00;44.50
70986;DHT22;58645;43.068;25.610;2023-08-01T15:06:05;31.00;45.30
70986;DHT22;58645;43.068;25.610;2023-08-01T15:08:31;30.80;45.40
70986;DHT22;58645;43.068;25.610;2023-08-01T15:10:56;30.80;46.00
70986;DHT22;58645;43.068;25.610;2023-08-01T15:13:22;30.80;45.90
70986;DHT22;58645;43.068;25.610;2023-08-01T15:15:48;30.80;46.00
70986;DHT22;58645;43.068;25.610;2023-08-01T15:18:13;30.70;45.50